createdAt,value
2017-09-07T00:00:03.660Z,792.02
2017-09-07T00:00:07.967Z,791.96
2017-09-07T00:00:11.903Z,791.98
2017-09-07T00:00:15.957Z,792
2017-09-07T00:00:20.400Z,792
2017-09-07T00:00:24.455Z,792.02
2017-09-07T00:00:28.514Z,791.99
2017-09-07T00:00:32.710Z,792.02
2017-09-07T00:00:36.894Z,792.01
2017-09-07T00:00:40.827Z,792.03
2017-09-07T00:00:44.762Z,792.02
2017-09-07T00:00:49.070Z,792.03
2017-09-07T00:00:53.129Z,792.05
2017-09-07T00:00:57.189Z,792.04
2017-09-07T00:01:01.370Z,792.06
2017-09-07T00:01:05.360Z,792.06
2017-09-07T00:01:09.341Z,792.08
2017-09-07T00:01:13.406Z,792.05
2017-09-07T00:01:17.466Z,792.04
2017-09-07T00:01:21.648Z,792.08
2017-09-07T00:01:25.720Z,792.07
2017-09-07T00:01:29.779Z,792.01
2017-09-07T00:01:33.962Z,792.04
2017-09-07T00:01:38.016Z,792.01
2017-09-07T00:01:42.203Z,792.03
2017-09-07T00:01:46.265Z,792.06
2017-09-07T00:01:50.323Z,792.06
2017-09-07T00:01:54.256Z,792.04
2017-09-07T00:01:58.324Z,792.02
2017-09-07T00:02:02.516Z,792.06
2017-09-07T00:02:06.325Z,791.99
2017-09-07T00:02:10.506Z,792.02
2017-09-07T00:02:14.824Z,792.06
2017-09-07T00:02:19.035Z,792.06
2017-09-07T00:02:22.843Z,792.04
2017-09-07T00:02:26.774Z,792.06
2017-09-07T00:02:30.830Z,792.06
2017-09-07T00:02:34.637Z,792.03
2017-09-07T00:02:38.700Z,792.05
2017-09-07T00:02:43.058Z,792
2017-09-07T00:02:46.992Z,792.05
2017-09-07T00:02:51.301Z,792.06
2017-09-07T00:02:55.356Z,792.06
2017-09-07T00:02:59.289Z,792.02
2017-09-07T00:03:03.329Z,792.03
2017-09-07T00:03:07.267Z,792.03
2017-09-07T00:03:11.083Z,792.04
2017-09-07T00:03:15.015Z,792.03
2017-09-07T00:03:19.090Z,792.05
2017-09-07T00:03:23.025Z,792.04
2017-09-07T00:03:27.206Z,792.03
2017-09-07T00:03:31.272Z,792.01
2017-09-07T00:03:35.204Z,792.04
2017-09-07T00:03:39.649Z,792.03
2017-09-07T00:03:43.954Z,792.03
2017-09-07T00:03:48.133Z,791.99
2017-09-07T00:03:52.314Z,792.04
2017-09-07T00:03:56.125Z,792.04
2017-09-07T00:04:00.320Z,792.02
2017-09-07T00:04:04.759Z,792.03
2017-09-07T00:04:08.689Z,792.04
2017-09-07T00:04:12.375Z,792.04
2017-09-07T00:04:16.313Z,791.98
2017-09-07T00:04:20.623Z,792.05
2017-09-07T00:04:24.809Z,792.02
2017-09-07T00:04:28.626Z,792.03
2017-09-07T00:04:32.563Z,792.05
2017-09-07T00:04:36.496Z,792.05
2017-09-07T00:04:40.553Z,792.01
2017-09-07T00:04:44.234Z,792.02
2017-09-07T00:04:48.334Z,792
2017-09-07T00:04:51.991Z,791.99
2017-09-07T00:04:56.170Z,792.01
2017-09-07T00:05:00.226Z,792
2017-09-07T00:05:04.538Z,791.96
2017-09-07T00:05:08.475Z,792.01
2017-09-07T00:05:12.663Z,792
2017-09-07T00:05:16.728Z,791.99
2017-09-07T00:05:20.670Z,791.99
2017-09-07T00:05:24.603Z,791.97
2017-09-07T00:05:28.911Z,792.02
2017-09-07T00:05:32.974Z,792
2017-09-07T00:05:37.163Z,792.01
2017-09-07T00:05:41.227Z,791.96
2017-09-07T00:05:45.279Z,791.96
2017-09-07T00:05:49.458Z,792.03
2017-09-07T00:05:53.645Z,792
2017-09-07T00:05:57.706Z,792.01
2017-09-07T00:06:01.819Z,792.03
2017-09-07T00:06:05.628Z,792.06
2017-09-07T00:06:09.814Z,792.04
2017-09-07T00:06:13.634Z,792.02
2017-09-07T00:06:17.692Z,791.99
2017-09-07T00:06:21.753Z,792.03
2017-09-07T00:06:25.811Z,792.05
2017-09-07T00:06:29.998Z,792.05
2017-09-07T00:06:33.929Z,792.03
2017-09-07T00:06:37.996Z,792.05
2017-09-07T00:06:42.190Z,792.04
2017-09-07T00:06:46.379Z,792.02
2017-09-07T00:06:50.459Z,792.03
2017-09-07T00:06:54.514Z,792.03
2017-09-07T00:06:58.701Z,792.02
2017-09-07T00:07:03.065Z,792.02
2017-09-07T00:07:07.042Z,792.04
2017-09-07T00:07:11.100Z,792.01
2017-09-07T00:07:15.159Z,792
2017-09-07T00:07:19.347Z,792
2017-09-07T00:07:23.408Z,792.04
2017-09-07T00:07:27.592Z,792.06
2017-09-07T00:07:31.647Z,792.03
2017-09-07T00:07:35.706Z,792
2017-09-07T00:07:39.646Z,792.03
2017-09-07T00:07:43.581Z,792.04
2017-09-07T00:07:47.382Z,791.99
2017-09-07T00:07:51.312Z,792.03
2017-09-07T00:07:55.247Z,792.06
2017-09-07T00:07:59.181Z,792.01
2017-09-07T00:08:03.496Z,792.04
2017-09-07T00:08:07.804Z,792.02
2017-09-07T00:08:11.612Z,792.02
2017-09-07T00:08:15.555Z,792.04
2017-09-07T00:08:19.614Z,792.02
2017-09-07T00:08:23.541Z,792.04
2017-09-07T00:08:27.978Z,792.03
2017-09-07T00:08:32.163Z,792.06
2017-09-07T00:08:35.965Z,792.05
2017-09-07T00:08:40.021Z,792.06
2017-09-07T00:08:44.076Z,792.04
2017-09-07T00:08:48.009Z,792.08
2017-09-07T00:08:52.186Z,792.07
2017-09-07T00:08:56.370Z,792.01
2017-09-07T00:09:00.423Z,792.07
2017-09-07T00:09:04.362Z,792.04
2017-09-07T00:09:08.415Z,792.03
2017-09-07T00:09:12.354Z,792.06
2017-09-07T00:09:16.414Z,792.08
2017-09-07T00:09:20.350Z,792.08
2017-09-07T00:09:24.451Z,792.05
2017-09-07T00:09:28.512Z,792.05
2017-09-07T00:09:32.573Z,792.04
2017-09-07T00:09:36.758Z,792.05
2017-09-07T00:09:40.951Z,792.06
2017-09-07T00:09:45.010Z,792.08
2017-09-07T00:09:49.326Z,792.09
2017-09-07T00:09:53.382Z,792.06
2017-09-07T00:09:57.190Z,792.06
2017-09-07T00:10:01.138Z,792.06
2017-09-07T00:10:05.197Z,792.07
2017-09-07T00:10:09.009Z,792.09
2017-09-07T00:10:12.938Z,792.11
2017-09-07T00:10:16.747Z,792.1
2017-09-07T00:10:20.806Z,792.1
2017-09-07T00:10:24.740Z,792.09
2017-09-07T00:10:28.797Z,792.09
2017-09-07T00:10:32.979Z,792.04
2017-09-07T00:10:37.159Z,792.07
2017-09-07T00:10:41.354Z,792.04
2017-09-07T00:10:45.159Z,792.12
2017-09-07T00:10:48.967Z,792.12
2017-09-07T00:10:52.902Z,792.09
2017-09-07T00:10:56.830Z,792.12
2017-09-07T00:11:00.641Z,792.13
2017-09-07T00:11:05.214Z,792.09
2017-09-07T00:11:09.397Z,792.15
2017-09-07T00:11:13.584Z,792.13
2017-09-07T00:11:17.516Z,792.17
2017-09-07T00:11:21.593Z,792.11
2017-09-07T00:11:25.682Z,792.19
2017-09-07T00:11:29.740Z,792.14
2017-09-07T00:11:33.675Z,792.16
2017-09-07T00:11:37.736Z,792.13
2017-09-07T00:11:41.796Z,792.15
2017-09-07T00:11:45.727Z,792.18
2017-09-07T00:11:49.666Z,792.19
2017-09-07T00:11:53.728Z,792.17
2017-09-07T00:11:57.908Z,792.17
2017-09-07T00:12:02.092Z,792.15
2017-09-07T00:12:06.150Z,792.19
2017-09-07T00:12:10.207Z,792.18
2017-09-07T00:12:14.012Z,792.16
2017-09-07T00:12:18.188Z,792.21
2017-09-07T00:12:22.244Z,792.15
2017-09-07T00:12:26.558Z,792.18
2017-09-07T00:12:30.746Z,792.14
2017-09-07T00:12:35.054Z,792.21
2017-09-07T00:12:38.982Z,792.19
2017-09-07T00:12:42.911Z,792.18
2017-09-07T00:12:47.098Z,792.15
2017-09-07T00:12:51.029Z,792.17
2017-09-07T00:12:55.213Z,792.2
2017-09-07T00:12:59.399Z,792.19
2017-09-07T00:13:03.488Z,792.21
2017-09-07T00:13:07.296Z,792.22
2017-09-07T00:13:11.481Z,792.23
2017-09-07T00:13:15.287Z,792.22
2017-09-07T00:13:19.350Z,792.23
2017-09-07T00:13:23.410Z,792.24
2017-09-07T00:13:27.470Z,792.24
2017-09-07T00:13:31.404Z,792.21
2017-09-07T00:13:35.467Z,792.2
2017-09-07T00:13:39.647Z,792.22
2017-09-07T00:13:43.455Z,792.23
2017-09-07T00:13:47.518Z,792.22
2017-09-07T00:13:51.702Z,792.25
2017-09-07T00:13:55.631Z,792.16
2017-09-07T00:13:59.566Z,792.21
2017-09-07T00:14:03.901Z,792.25
2017-09-07T00:14:08.087Z,792.25
2017-09-07T00:14:12.302Z,792.17
2017-09-07T00:14:16.357Z,792.18
2017-09-07T00:14:20.541Z,792.25
2017-09-07T00:14:24.472Z,792.21
2017-09-07T00:14:28.534Z,792.22
2017-09-07T00:14:32.848Z,792.29
2017-09-07T00:14:37.029Z,792.23
2017-09-07T00:14:40.710Z,792.26
2017-09-07T00:14:44.639Z,792.26
2017-09-07T00:14:48.697Z,792.25
2017-09-07T00:14:52.760Z,792.25
2017-09-07T00:14:56.941Z,792.25
2017-09-07T00:15:01.129Z,792.27
2017-09-07T00:15:05.262Z,792.28
2017-09-07T00:15:09.324Z,792.29
2017-09-07T00:15:13.133Z,792.29
2017-09-07T00:15:17.440Z,792.27
2017-09-07T00:15:21.747Z,792.28
2017-09-07T00:15:25.804Z,792.28
2017-09-07T00:15:29.858Z,792.31
2017-09-07T00:15:33.910Z,792.24
2017-09-07T00:15:37.840Z,792.3
2017-09-07T00:15:41.899Z,792.28
2017-09-07T00:15:45.960Z,792.31
2017-09-07T00:15:49.893Z,792.29
2017-09-07T00:15:54.077Z,792.28
2017-09-07T00:15:57.879Z,792.3
2017-09-07T00:16:01.936Z,792.3
2017-09-07T00:16:05.998Z,792.34
2017-09-07T00:16:10.308Z,792.33
2017-09-07T00:16:14.499Z,792.31
2017-09-07T00:16:18.430Z,792.27
2017-09-07T00:16:22.366Z,792.34
2017-09-07T00:16:26.304Z,792.3
2017-09-07T00:16:30.480Z,792.34
2017-09-07T00:16:34.787Z,792.32
2017-09-07T00:16:38.847Z,792.34
2017-09-07T00:16:43.281Z,792.29
2017-09-07T00:16:47.342Z,792.32
2017-09-07T00:16:51.534Z,792.33
2017-09-07T00:16:55.595Z,792.34
2017-09-07T00:16:59.654Z,792.35
2017-09-07T00:17:03.590Z,792.35
2017-09-07T00:17:07.525Z,792.37
2017-09-07T00:17:11.836Z,792.37
2017-09-07T00:17:16.023Z,792.37
2017-09-07T00:17:19.711Z,792.36
2017-09-07T00:17:23.767Z,792.39
2017-09-07T00:17:27.823Z,792.39
2017-09-07T00:17:32.010Z,792.35
2017-09-07T00:17:36.321Z,792.32
2017-09-07T00:17:40.621Z,792.33
2017-09-07T00:17:44.929Z,792.36
2017-09-07T00:17:48.735Z,792.37
2017-09-07T00:17:52.666Z,792.37
2017-09-07T00:17:56.594Z,792.41
2017-09-07T00:18:00.651Z,792.37
2017-09-07T00:18:04.714Z,792.38
2017-09-07T00:18:08.774Z,792.37
2017-09-07T00:18:12.831Z,792.4
2017-09-07T00:18:16.765Z,792.35
2017-09-07T00:18:20.822Z,792.39
2017-09-07T00:18:24.884Z,792.39
2017-09-07T00:18:29.061Z,792.38
2017-09-07T00:18:33.248Z,792.41
2017-09-07T00:18:37.179Z,792.37
2017-09-07T00:18:41.148Z,792.36
2017-09-07T00:18:44.957Z,792.45
2017-09-07T00:18:49.017Z,792.4
2017-09-07T00:18:52.955Z,792.43
2017-09-07T00:18:57.015Z,792.43
2017-09-07T00:19:01.075Z,792.42
2017-09-07T00:19:05.437Z,792.41
2017-09-07T00:19:09.623Z,792.42
2017-09-07T00:19:13.557Z,792.42
2017-09-07T00:19:17.614Z,792.43
2017-09-07T00:19:21.794Z,792.39
2017-09-07T00:19:25.608Z,792.46
2017-09-07T00:19:29.669Z,792.43
2017-09-07T00:19:33.602Z,792.43
2017-09-07T00:19:37.534Z,792.44
2017-09-07T00:19:41.595Z,792.38
2017-09-07T00:19:45.527Z,792.43
2017-09-07T00:19:49.460Z,792.41
2017-09-07T00:19:53.395Z,792.42
2017-09-07T00:19:57.454Z,792.45
2017-09-07T00:20:01.719Z,792.44
2017-09-07T00:20:06.032Z,792.46
2017-09-07T00:20:09.840Z,792.46
2017-09-07T00:20:14.027Z,792.47
2017-09-07T00:20:17.959Z,792.45
2017-09-07T00:20:21.766Z,792.46
2017-09-07T00:20:25.447Z,792.45
2017-09-07T00:20:29.759Z,792.46
2017-09-07T00:20:33.442Z,792.48
2017-09-07T00:20:37.750Z,792.48
2017-09-07T00:20:41.680Z,792.5
2017-09-07T00:20:45.491Z,792.47
2017-09-07T00:20:49.801Z,792.5
2017-09-07T00:20:53.892Z,792.48
2017-09-07T00:20:57.697Z,792.47
2017-09-07T00:21:01.733Z,792.49
2017-09-07T00:21:05.539Z,792.45
2017-09-07T00:21:09.596Z,792.51
2017-09-07T00:21:13.527Z,792.42
2017-09-07T00:21:17.461Z,792.5
2017-09-07T00:21:21.519Z,792.5
2017-09-07T00:21:25.703Z,792.51
2017-09-07T00:21:29.884Z,792.47
2017-09-07T00:21:34.070Z,792.48
2017-09-07T00:21:38.250Z,792.5
2017-09-07T00:21:42.189Z,792.5
2017-09-07T00:21:46.130Z,792.5
2017-09-07T00:21:50.184Z,792.5
2017-09-07T00:21:54.495Z,792.52
2017-09-07T00:21:58.556Z,792.45
2017-09-07T00:22:02.617Z,792.51
2017-09-07T00:22:06.810Z,792.51
2017-09-07T00:22:10.618Z,792.5
2017-09-07T00:22:14.550Z,792.52
2017-09-07T00:22:18.736Z,792.53
2017-09-07T00:22:22.669Z,792.54
2017-09-07T00:22:26.852Z,792.54
2017-09-07T00:22:30.914Z,792.55
2017-09-07T00:22:34.727Z,792.54
2017-09-07T00:22:38.539Z,792.56
2017-09-07T00:22:42.471Z,792.54
2017-09-07T00:22:46.280Z,792.5
2017-09-07T00:22:50.350Z,792.53
2017-09-07T00:22:54.533Z,792.55
2017-09-07T00:22:58.474Z,792.55
2017-09-07T00:23:02.581Z,792.52
2017-09-07T00:23:06.515Z,792.54
2017-09-07T00:23:10.454Z,792.56
2017-09-07T00:23:14.780Z,792.57
2017-09-07T00:23:18.974Z,792.54
2017-09-07T00:23:23.164Z,792.53
2017-09-07T00:23:27.348Z,792.55
2017-09-07T00:23:31.404Z,792.54
2017-09-07T00:23:35.462Z,792.55
2017-09-07T00:23:39.522Z,792.55
2017-09-07T00:23:43.452Z,792.54
2017-09-07T00:23:47.513Z,792.52
2017-09-07T00:23:51.332Z,792.52
2017-09-07T00:23:55.269Z,792.54
2017-09-07T00:23:59.077Z,792.56
2017-09-07T00:24:03.184Z,792.53
2017-09-07T00:24:07.244Z,792.53
2017-09-07T00:24:11.304Z,792.53
2017-09-07T00:24:15.370Z,792.52
2017-09-07T00:24:19.300Z,792.49
2017-09-07T00:24:23.110Z,792.53
2017-09-07T00:24:27.035Z,792.54
2017-09-07T00:24:30.967Z,792.52
2017-09-07T00:24:35.028Z,792.52
2017-09-07T00:24:38.963Z,792.51
2017-09-07T00:24:43.273Z,792.55
2017-09-07T00:24:47.208Z,792.57
2017-09-07T00:24:51.516Z,792.56
2017-09-07T00:24:55.321Z,792.56
2017-09-07T00:24:59.378Z,792.57
2017-09-07T00:25:03.574Z,792.56
2017-09-07T00:25:07.513Z,792.57
2017-09-07T00:25:11.695Z,792.57
2017-09-07T00:25:15.638Z,792.57
2017-09-07T00:25:19.445Z,792.58
2017-09-07T00:25:23.500Z,792.58
2017-09-07T00:25:27.560Z,792.57
2017-09-07T00:25:31.740Z,792.57
2017-09-07T00:25:35.666Z,792.61
2017-09-07T00:25:39.728Z,792.6
2017-09-07T00:25:43.793Z,792.6
2017-09-07T00:25:47.729Z,792.57
2017-09-07T00:25:51.661Z,792.57
2017-09-07T00:25:55.471Z,792.57
2017-09-07T00:25:59.658Z,792.61
2017-09-07T00:26:03.834Z,792.59
2017-09-07T00:26:07.774Z,792.59
2017-09-07T00:26:11.965Z,792.6
2017-09-07T00:26:16.283Z,792.59
2017-09-07T00:26:20.464Z,792.61
2017-09-07T00:26:24.531Z,792.58
2017-09-07T00:26:28.590Z,792.6
2017-09-07T00:26:32.775Z,792.59
2017-09-07T00:26:36.955Z,792.59
2017-09-07T00:26:41.259Z,792.59
2017-09-07T00:26:45.192Z,792.6
2017-09-07T00:26:49.250Z,792.62
2017-09-07T00:26:53.058Z,792.62
2017-09-07T00:26:56.988Z,792.62
2017-09-07T00:27:01.293Z,792.58
2017-09-07T00:27:05.279Z,792.64
2017-09-07T00:27:09.346Z,792.63
2017-09-07T00:27:13.405Z,792.61
2017-09-07T00:27:17.467Z,792.62
2017-09-07T00:27:21.408Z,792.62
2017-09-07T00:27:25.341Z,792.63
2017-09-07T00:27:29.400Z,792.62
2017-09-07T00:27:33.587Z,792.65
2017-09-07T00:27:37.396Z,792.64
2017-09-07T00:27:41.577Z,792.63
2017-09-07T00:27:45.513Z,792.64
2017-09-07T00:27:49.545Z,792.63
2017-09-07T00:27:53.608Z,792.61
2017-09-07T00:27:57.971Z,792.61
2017-09-07T00:28:01.905Z,792.63
2017-09-07T00:28:05.963Z,792.63
2017-09-07T00:28:10.143Z,792.63
2017-09-07T00:28:14.206Z,792.65
2017-09-07T00:28:18.399Z,792.63
2017-09-07T00:28:22.328Z,792.59
2017-09-07T00:28:26.510Z,792.62
2017-09-07T00:28:30.475Z,792.61
2017-09-07T00:28:34.654Z,792.6
2017-09-07T00:28:38.713Z,792.63
2017-09-07T00:28:42.787Z,792.61
2017-09-07T00:28:46.594Z,792.65
2017-09-07T00:28:50.522Z,792.64
2017-09-07T00:28:54.701Z,792.62
2017-09-07T00:28:58.641Z,792.64
2017-09-07T00:29:02.703Z,792.63
2017-09-07T00:29:06.611Z,792.67
2017-09-07T00:29:10.669Z,792.61
2017-09-07T00:29:14.615Z,792.62
2017-09-07T00:29:18.683Z,792.62
2017-09-07T00:29:23.000Z,792.65
2017-09-07T00:29:27.311Z,792.58
2017-09-07T00:29:31.116Z,792.65
2017-09-07T00:29:35.056Z,792.63
2017-09-07T00:29:39.114Z,792.65
2017-09-07T00:29:43.044Z,792.64
2017-09-07T00:29:46.854Z,792.66
2017-09-07T00:29:51.039Z,792.66
2017-09-07T00:29:54.971Z,792.63
2017-09-07T00:29:58.895Z,792.64
2017-09-07T00:30:03.108Z,792.62
2017-09-07T00:30:07.293Z,792.66
2017-09-07T00:30:11.484Z,792.65
2017-09-07T00:30:15.547Z,792.62
2017-09-07T00:30:19.602Z,792.66
2017-09-07T00:30:23.540Z,792.64
2017-09-07T00:30:27.851Z,792.63
2017-09-07T00:30:31.913Z,792.59
2017-09-07T00:30:35.844Z,792.59
2017-09-07T00:30:40.025Z,792.59
2017-09-07T00:30:44.082Z,792.6
2017-09-07T00:30:48.267Z,792.59
2017-09-07T00:30:52.078Z,792.59
2017-09-07T00:30:56.259Z,792.59
2017-09-07T00:30:59.946Z,792.62
2017-09-07T00:31:04.255Z,792.6
2017-09-07T00:31:08.062Z,792.56
2017-09-07T00:31:12.246Z,792.6
2017-09-07T00:31:16.442Z,792.58
2017-09-07T00:31:20.636Z,792.57
2017-09-07T00:31:24.574Z,792.58
2017-09-07T00:31:28.503Z,792.58
2017-09-07T00:31:32.438Z,792.59
2017-09-07T00:31:36.379Z,792.59
2017-09-07T00:31:40.561Z,792.57
2017-09-07T00:31:44.491Z,792.58
2017-09-07T00:31:48.559Z,792.58
2017-09-07T00:31:52.263Z,792.57
2017-09-07T00:31:56.569Z,792.56
2017-09-07T00:32:00.377Z,792.54
2017-09-07T00:32:04.468Z,792.51
2017-09-07T00:32:08.399Z,792.48
2017-09-07T00:32:12.339Z,792.53
2017-09-07T00:32:16.397Z,792.56
2017-09-07T00:32:20.331Z,792.59
2017-09-07T00:32:24.512Z,792.53
2017-09-07T00:32:28.575Z,792.54
2017-09-07T00:32:32.634Z,792.55
2017-09-07T00:32:36.562Z,792.51
2017-09-07T00:32:40.497Z,792.54
2017-09-07T00:32:44.561Z,792.5
2017-09-07T00:32:48.794Z,792.49
2017-09-07T00:32:52.850Z,792.53
2017-09-07T00:32:57.043Z,792.52
2017-09-07T00:33:00.982Z,792.55
2017-09-07T00:33:05.340Z,792.5
2017-09-07T00:33:09.403Z,792.51
2017-09-07T00:33:13.468Z,792.48
2017-09-07T00:33:17.529Z,792.51
2017-09-07T00:33:21.584Z,792.49
2017-09-07T00:33:25.652Z,792.49
2017-09-07T00:33:29.711Z,792.48
2017-09-07T00:33:33.640Z,792.48
2017-09-07T00:33:37.818Z,792.48
2017-09-07T00:33:41.876Z,792.43
2017-09-07T00:33:45.930Z,792.48
2017-09-07T00:33:49.987Z,792.51
2017-09-07T00:33:53.921Z,792.5
2017-09-07T00:33:58.101Z,792.48
2017-09-07T00:34:02.381Z,792.47
2017-09-07T00:34:06.315Z,792.48
2017-09-07T00:34:10.380Z,792.46
2017-09-07T00:34:14.194Z,792.45
2017-09-07T00:34:18.385Z,792.45
2017-09-07T00:34:22.314Z,792.47
2017-09-07T00:34:26.244Z,792.48
2017-09-07T00:34:30.056Z,792.45
2017-09-07T00:34:33.993Z,792.45
2017-09-07T00:34:38.054Z,792.45
2017-09-07T00:34:42.113Z,792.44
2017-09-07T00:34:45.809Z,792.48
2017-09-07T00:34:49.866Z,792.45
2017-09-07T00:34:53.923Z,792.46
2017-09-07T00:34:57.982Z,792.4
2017-09-07T00:35:02.168Z,792.4
2017-09-07T00:35:06.101Z,792.45
2017-09-07T00:35:10.038Z,792.46
2017-09-07T00:35:13.972Z,792.46
2017-09-07T00:35:17.906Z,792.46
2017-09-07T00:35:21.840Z,792.46
2017-09-07T00:35:25.526Z,792.45
2017-09-07T00:35:29.586Z,792.46
2017-09-07T00:35:33.398Z,792.47
2017-09-07T00:35:37.206Z,792.46
2017-09-07T00:35:41.515Z,792.45
2017-09-07T00:35:45.615Z,792.44
2017-09-07T00:35:49.672Z,792.47
2017-09-07T00:35:53.602Z,792.47
2017-09-07T00:35:57.412Z,792.44
2017-09-07T00:36:01.346Z,792.48
2017-09-07T00:36:05.156Z,792.45
2017-09-07T00:36:09.212Z,792.46
2017-09-07T00:36:13.150Z,792.44
2017-09-07T00:36:16.956Z,792.38
2017-09-07T00:36:21.269Z,792.42
2017-09-07T00:36:25.204Z,792.43
2017-09-07T00:36:29.130Z,792.43
2017-09-07T00:36:33.185Z,792.42
2017-09-07T00:36:37.125Z,792.41
2017-09-07T00:36:40.937Z,792.43
2017-09-07T00:36:44.994Z,792.46
2017-09-07T00:36:49.045Z,792.44
2017-09-07T00:36:53.114Z,792.41
2017-09-07T00:36:56.925Z,792.38
2017-09-07T00:37:00.860Z,792.43
2017-09-07T00:37:04.999Z,792.42
2017-09-07T00:37:09.229Z,792.41
2017-09-07T00:37:13.032Z,792.41
2017-09-07T00:37:16.959Z,792.41
2017-09-07T00:37:21.274Z,792.38
2017-09-07T00:37:25.215Z,792.46
2017-09-07T00:37:29.150Z,792.4
2017-09-07T00:37:33.208Z,792.44
2017-09-07T00:37:37.271Z,792.36
2017-09-07T00:37:41.212Z,792.41
2017-09-07T00:37:45.396Z,792.4
2017-09-07T00:37:49.083Z,792.4
2017-09-07T00:37:53.021Z,792.43
2017-09-07T00:37:57.208Z,792.42
2017-09-07T00:38:01.146Z,792.39
2017-09-07T00:38:05.206Z,792.41
2017-09-07T00:38:09.261Z,792.4
2017-09-07T00:38:13.205Z,792.39
2017-09-07T00:38:17.138Z,792.37
2017-09-07T00:38:20.942Z,792.35
2017-09-07T00:38:24.885Z,792.41
2017-09-07T00:38:28.943Z,792.37
2017-09-07T00:38:33.131Z,792.4
2017-09-07T00:38:37.065Z,792.4
2017-09-07T00:38:41.122Z,792.34
2017-09-07T00:38:45.180Z,792.39
2017-09-07T00:38:48.989Z,792.41
2017-09-07T00:38:53.178Z,792.41
2017-09-07T00:38:57.229Z,792.41
2017-09-07T00:39:01.164Z,792.39
2017-09-07T00:39:05.274Z,792.41
2017-09-07T00:39:09.458Z,792.43
2017-09-07T00:39:13.645Z,792.4
2017-09-07T00:39:17.327Z,792.44
2017-09-07T00:39:21.252Z,792.45
2017-09-07T00:39:25.191Z,792.41
2017-09-07T00:39:29.372Z,792.4
2017-09-07T00:39:33.557Z,792.42
2017-09-07T00:39:37.607Z,792.44
2017-09-07T00:39:41.418Z,792.36
2017-09-07T00:39:45.237Z,792.41
2017-09-07T00:39:49.298Z,792.4
2017-09-07T00:39:53.228Z,792.39
2017-09-07T00:39:57.420Z,792.38
2017-09-07T00:40:01.475Z,792.41
2017-09-07T00:40:05.784Z,792.42
2017-09-07T00:40:09.723Z,792.42
2017-09-07T00:40:13.537Z,792.37
2017-09-07T00:40:17.604Z,792.35
2017-09-07T00:40:21.788Z,792.41
2017-09-07T00:40:25.840Z,792.44
2017-09-07T00:40:30.036Z,792.42
2017-09-07T00:40:34.134Z,792.36
2017-09-07T00:40:38.197Z,792.41
2017-09-07T00:40:42.255Z,792.38
2017-09-07T00:40:46.069Z,792.39
2017-09-07T00:40:49.999Z,792.38
2017-09-07T00:40:54.056Z,792.41
2017-09-07T00:40:58.239Z,792.39
2017-09-07T00:41:02.479Z,792.39
2017-09-07T00:41:06.171Z,792.41
2017-09-07T00:41:10.263Z,792.4
2017-09-07T00:41:14.197Z,792.39
2017-09-07T00:41:18.384Z,792.39
2017-09-07T00:41:22.193Z,792.39
2017-09-07T00:41:26.509Z,792.35
2017-09-07T00:41:30.571Z,792.41
2017-09-07T00:41:34.377Z,792.37
2017-09-07T00:41:38.317Z,792.42
2017-09-07T00:41:42.130Z,792.4
2017-09-07T00:41:45.940Z,792.42
2017-09-07T00:41:49.996Z,792.4
2017-09-07T00:41:53.811Z,792.41
2017-09-07T00:41:57.995Z,792.42
2017-09-07T00:42:01.928Z,792.4
2017-09-07T00:42:05.733Z,792.33
2017-09-07T00:42:09.794Z,792.35
2017-09-07T00:42:13.985Z,792.37
2017-09-07T00:42:17.802Z,792.39
2017-09-07T00:42:21.860Z,792.4
2017-09-07T00:42:25.789Z,792.45
2017-09-07T00:42:29.733Z,792.41
2017-09-07T00:42:33.794Z,792.4
2017-09-07T00:42:37.732Z,792.42
2017-09-07T00:42:41.796Z,792.42
2017-09-07T00:42:45.602Z,792.37
2017-09-07T00:42:49.664Z,792.38
2017-09-07T00:42:53.773Z,792.42
2017-09-07T00:42:57.705Z,792.41
2017-09-07T00:43:01.889Z,792.44
2017-09-07T00:43:05.951Z,792.45
2017-09-07T00:43:10.006Z,792.44
2017-09-07T00:43:14.069Z,792.45
2017-09-07T00:43:17.756Z,792.46
2017-09-07T00:43:21.811Z,792.43
2017-09-07T00:43:25.745Z,792.43
2017-09-07T00:43:29.927Z,792.45
2017-09-07T00:43:34.115Z,792.44
2017-09-07T00:43:38.174Z,792.43
2017-09-07T00:43:42.395Z,792.46
2017-09-07T00:43:46.327Z,792.46
2017-09-07T00:43:50.640Z,792.46
2017-09-07T00:43:54.702Z,792.43
2017-09-07T00:43:58.633Z,792.43
2017-09-07T00:44:02.692Z,792.45
2017-09-07T00:44:06.632Z,792.44
2017-09-07T00:44:10.571Z,792.39
2017-09-07T00:44:14.756Z,792.44
2017-09-07T00:44:18.815Z,792.43
2017-09-07T00:44:22.875Z,792.44
2017-09-07T00:44:26.687Z,792.45
2017-09-07T00:44:30.981Z,792.43
2017-09-07T00:44:35.042Z,792.46
2017-09-07T00:44:38.849Z,792.44
2017-09-07T00:44:43.168Z,792.46
2017-09-07T00:44:47.252Z,792.45
2017-09-07T00:44:51.308Z,792.46
2017-09-07T00:44:55.367Z,792.43
2017-09-07T00:44:59.300Z,792.46
2017-09-07T00:45:03.630Z,792.4
2017-09-07T00:45:07.934Z,792.44
2017-09-07T00:45:11.993Z,792.42
2017-09-07T00:45:15.808Z,792.43
2017-09-07T00:45:19.741Z,792.42
2017-09-07T00:45:23.926Z,792.41
2017-09-07T00:45:28.234Z,792.4
2017-09-07T00:45:32.425Z,792.43
2017-09-07T00:45:36.739Z,792.43
2017-09-07T00:45:40.800Z,792.42
2017-09-07T00:45:44.616Z,792.36
2017-09-07T00:45:48.552Z,792.4
2017-09-07T00:45:52.614Z,792.42
2017-09-07T00:45:56.677Z,792.42
2017-09-07T00:46:00.605Z,792.42
2017-09-07T00:46:04.667Z,792.42
2017-09-07T00:46:08.728Z,792.43
2017-09-07T00:46:12.533Z,792.42
2017-09-07T00:46:16.342Z,792.41
2017-09-07T00:46:20.396Z,792.43
2017-09-07T00:46:24.330Z,792.43
2017-09-07T00:46:28.514Z,792.41
2017-09-07T00:46:32.326Z,792.43
2017-09-07T00:46:36.255Z,792.41
2017-09-07T00:46:40.193Z,792.42
2017-09-07T00:46:44.378Z,792.42
2017-09-07T00:46:48.312Z,792.42
2017-09-07T00:46:52.377Z,792.4
2017-09-07T00:46:56.434Z,792.39
2017-09-07T00:47:00.495Z,792.41
2017-09-07T00:47:04.626Z,792.42
2017-09-07T00:47:08.682Z,792.45
2017-09-07T00:47:12.996Z,792.39
2017-09-07T00:47:17.055Z,792.4
2017-09-07T00:47:21.113Z,792.4
2017-09-07T00:47:25.050Z,792.41
2017-09-07T00:47:28.862Z,792.41
2017-09-07T00:47:32.831Z,792.42
2017-09-07T00:47:37.138Z,792.41
2017-09-07T00:47:41.204Z,792.37
2017-09-07T00:47:45.265Z,792.41
2017-09-07T00:47:49.444Z,792.4
2017-09-07T00:47:53.253Z,792.41
2017-09-07T00:47:57.437Z,792.4
2017-09-07T00:48:01.369Z,792.44
2017-09-07T00:48:05.430Z,792.4
2017-09-07T00:48:09.491Z,792.43
2017-09-07T00:48:13.301Z,792.41
2017-09-07T00:48:17.363Z,792.37
2017-09-07T00:48:21.324Z,792.4
2017-09-07T00:48:25.631Z,792.4
2017-09-07T00:48:29.811Z,792.38
2017-09-07T00:48:33.744Z,792.4
2017-09-07T00:48:37.676Z,792.36
2017-09-07T00:48:41.480Z,792.4
2017-09-07T00:48:45.418Z,792.41
2017-09-07T00:48:49.483Z,792.37
2017-09-07T00:48:53.421Z,792.36
2017-09-07T00:48:57.609Z,792.38
2017-09-07T00:49:02.067Z,792.38
2017-09-07T00:49:06.128Z,792.37
2017-09-07T00:49:10.449Z,792.37
2017-09-07T00:49:14.505Z,792.35
2017-09-07T00:49:18.559Z,792.35
2017-09-07T00:49:22.749Z,792.37
2017-09-07T00:49:26.808Z,792.36
2017-09-07T00:49:30.611Z,792.36
2017-09-07T00:49:34.807Z,792.37
2017-09-07T00:49:38.994Z,792.38
2017-09-07T00:49:43.091Z,792.39
2017-09-07T00:49:46.738Z,792.39
2017-09-07T00:49:50.795Z,792.38
2017-09-07T00:49:54.726Z,792.39
2017-09-07T00:49:58.779Z,792.39
2017-09-07T00:50:02.707Z,792.37
2017-09-07T00:50:06.761Z,792.39
2017-09-07T00:50:10.944Z,792.39
2017-09-07T00:50:14.880Z,792.37
2017-09-07T00:50:19.063Z,792.37
2017-09-07T00:50:22.998Z,792.38
2017-09-07T00:50:26.806Z,792.35
2017-09-07T00:50:30.740Z,792.38
2017-09-07T00:50:35.051Z,792.36
2017-09-07T00:50:38.857Z,792.37